Overly, North Dakota
Current Conditions -  °F | °C
As of 9:35 PM on Monday 20 Oct 2014 (Local Time) from KRUG Reporting Station
Clear Clear  
Wind Chill: 52°   Ceiling: Unl
Heat Index: 52°   Visibility: 10mi
Dew Point: 37°   Wind: 10mph
Humidity: 58%   Direction: 140°SE
Pressure: 29.95"   Gusts: NA
Location:  48.5496°N, 100.255°W
Report Text: KRUG 210235Z AUTO 14009KT 10SM CLR 11/03 A2995 RMK AO2
Loading
Personal Weather Stations






























Interactive Weather Map
Tropical Storm Tracking
New forecast layout! Learn more

10-Day Weather Forecast

Advertisements
Track Severe Weather on mobile